createdAt,value
2019-04-23T00:01:59.099Z,3.28
2019-04-23T00:12:48.062Z,3.27
2019-04-23T00:24:07.545Z,3.26
2019-04-23T00:35:00.702Z,3.26
2019-04-23T00:45:54.952Z,3.26
2019-04-23T00:57:22.240Z,3.25
2019-04-23T01:08:11.804Z,3.26
2019-04-23T01:19:28.463Z,3.25
2019-04-23T01:30:29.974Z,3.25
2019-04-23T01:41:33.580Z,3.25
2019-04-23T02:14:49.976Z,3.25
2019-04-23T02:59:21.397Z,3.23
2019-04-23T03:10:16.009Z,3.22
2019-04-23T03:33:44.067Z,3.22
2019-04-23T03:43:38.947Z,3.22
2019-04-23T04:17:01.313Z,3.21
2019-04-23T04:28:12.097Z,3.21
2019-04-23T04:39:03.334Z,3.21
2019-04-23T04:50:07.536Z,3.21
2019-04-23T05:01:13.090Z,3.21
2019-04-23T05:23:25.411Z,3.22
2019-04-23T05:34:28.866Z,3.23
2019-04-23T05:45:34.431Z,3.24
2019-04-23T06:07:44.053Z,3.26
2019-04-23T06:18:53.071Z,3.27
2019-04-23T06:29:52.351Z,3.28
2019-04-23T06:41:06.183Z,3.29
2019-04-23T07:03:14.833Z,3.33
2019-04-23T07:14:26.204Z,3.33
2019-04-23T07:25:17.770Z,3.34
2019-04-23T07:36:30.755Z,3.34
2019-04-23T07:47:40.127Z,3.34
2019-04-23T07:58:44.842Z,3.36
2019-04-23T08:09:48.115Z,3.41
2019-04-23T08:42:56.278Z,3.39
2019-04-23T08:54:02.972Z,3.39
2019-04-23T09:05:09.445Z,3.37
2019-04-23T09:16:23.798Z,3.38
2019-04-23T09:27:22.712Z,3.37
2019-04-23T09:38:38.285Z,3.37
2019-04-23T10:00:37.957Z,3.37
2019-04-23T10:11:09.655Z,3.37
2019-04-23T10:22:11.455Z,3.37
2019-04-23T10:33:13.942Z,3.38
2019-04-23T10:44:13.547Z,3.39
2019-04-23T10:55:51.132Z,3.39
2019-04-23T11:06:50.106Z,3.39
2019-04-23T11:17:47.831Z,3.42
2019-04-23T11:29:07.927Z,3.38
2019-04-23T11:40:11.146Z,3.40
2019-04-23T12:02:23.278Z,3.39
2019-04-23T12:13:49.444Z,3.39
2019-04-23T12:24:58.587Z,3.39
2019-04-23T12:35:32.517Z,3.39
2019-04-23T12:46:46.190Z,3.39
2019-04-23T12:58:11.147Z,3.39
2019-04-23T13:09:21.956Z,3.39
2019-04-23T13:20:14.965Z,3.39
2019-04-23T13:31:10.603Z,3.39
2019-04-23T13:42:35.987Z,3.39
2019-04-23T14:15:41.217Z,3.39
2019-04-23T14:37:45.639Z,3.37
2019-04-23T14:48:38.651Z,3.37
2019-04-23T14:59:37.633Z,3.37
2019-04-23T15:21:53.806Z,3.36
2019-04-23T15:33:11.795Z,3.37
2019-04-23T16:05:46.804Z,3.34
2019-04-23T16:17:13.744Z,3.34
2019-04-23T16:28:37.112Z,3.34
2019-04-23T16:39:29.674Z,3.33
2019-04-23T16:50:57.914Z,3.33
2019-04-23T17:01:44.522Z,3.32
2019-04-23T17:12:52.807Z,3.32
2019-04-23T17:23:59.283Z,3.31
2019-04-23T17:35:08.430Z,3.31
2019-04-23T17:46:05.354Z,3.30
2019-04-23T18:08:21.302Z,3.30
2019-04-23T18:19:16.763Z,3.30
2019-04-23T18:41:18.058Z,3.29
2019-04-23T18:52:36.575Z,3.29
2019-04-23T19:03:43.726Z,3.29
2019-04-23T19:25:36.532Z,3.28
2019-04-23T19:47:55.959Z,3.28
2019-04-23T19:58:54.249Z,3.28
2019-04-23T20:20:58.967Z,3.27
2019-04-23T20:43:07.010Z,3.26
2019-04-23T20:54:08.720Z,3.26
2019-04-23T21:05:15.132Z,3.26
2019-04-23T21:16:26.786Z,3.26
2019-04-23T21:38:58.662Z,3.25
2019-04-23T21:49:57.869Z,3.25
2019-04-23T22:00:58.663Z,3.25
2019-04-23T22:23:03.725Z,3.25
2019-04-23T22:45:10.216Z,3.24
2019-04-23T22:56:17.629Z,3.23
2019-04-23T23:07:41.255Z,3.23
2019-04-23T23:29:28.521Z,3.23
2019-04-23T23:41:04.166Z,3.23
2019-04-23T23:51:45.086Z,3.22
